sensor_id;sensor_type;location;lat;lon;timestamp;pressure;altitude;pressure_sealevel;temperature
40199;BMP280;25906;43.536;26.068;2023-09-12T00:01:45;99015.94;;;17.70
40199;BMP280;25906;43.536;26.068;2023-09-12T00:04:30;99015.78;;;17.59
40199;BMP280;25906;43.536;26.068;2023-09-12T00:07:16;99020.16;;;17.62
40199;BMP280;25906;43.536;26.068;2023-09-12T00:10:02;99009.47;;;17.62
40199;BMP280;25906;43.536;26.068;2023-09-12T00:12:48;99006.63;;;17.66
40199;BMP280;25906;43.536;26.068;2023-09-12T00:15:33;99011.69;;;17.64
40199;BMP280;25906;43.536;26.068;2023-09-12T00:18:19;99013.91;;;17.65
40199;BMP280;25906;43.536;26.068;2023-09-12T00:21:04;99010.16;;;17.57
40199;BMP280;25906;43.536;26.068;2023-09-12T00:23:50;99008.47;;;17.60
40199;BMP280;25906;43.536;26.068;2023-09-12T00:26:35;99014.69;;;17.51
40199;BMP280;25906;43.536;26.068;2023-09-12T00:29:21;99010.63;;;17.41
40199;BMP280;25906;43.536;26.068;2023-09-12T00:32:06;99010.41;;;17.45
40199;BMP280;25906;43.536;26.068;2023-09-12T00:34:52;99009.50;;;17.33
40199;BMP280;25906;43.536;26.068;2023-09-12T00:37:37;99015.09;;;17.20
40199;BMP280;25906;43.536;26.068;2023-09-12T00:40:23;99020.00;;;17.22
40199;BMP280;25906;43.536;26.068;2023-09-12T00:43:08;99009.31;;;17.22
40199;BMP280;25906;43.536;26.068;2023-09-12T00:45:55;99018.44;;;17.30
40199;BMP280;25906;43.536;26.068;2023-09-12T00:48:40;99016.59;;;17.21
40199;BMP280;25906;43.536;26.068;2023-09-12T00:51:27;99016.31;;;17.19
40199;BMP280;25906;43.536;26.068;2023-09-12T00:54:13;99020.53;;;16.97
40199;BMP280;25906;43.536;26.068;2023-09-12T00:56:59;99018.94;;;17.05
40199;BMP280;25906;43.536;26.068;2023-09-12T00:59:44;99014.25;;;17.14
40199;BMP280;25906;43.536;26.068;2023-09-12T01:02:30;99016.50;;;17.16
40199;BMP280;25906;43.536;26.068;2023-09-12T01:05:15;99019.16;;;17.16
40199;BMP280;25906;43.536;26.068;2023-09-12T01:08:01;99022.19;;;17.09
40199;BMP280;25906;43.536;26.068;2023-09-12T01:10:48;99028.81;;;16.99
40199;BMP280;25906;43.536;26.068;2023-09-12T01:13:35;99034.47;;;17.01
40199;BMP280;25906;43.536;26.068;2023-09-12T01:16:20;99024.03;;;17.03
40199;BMP280;25906;43.536;26.068;2023-09-12T01:19:06;99031.28;;;16.88
40199;BMP280;25906;43.536;26.068;2023-09-12T01:25:00;99030.06;;;16.89
40199;BMP280;25906;43.536;26.068;2023-09-12T01:27:51;99030.28;;;17.00
40199;BMP280;25906;43.536;26.068;2023-09-12T01:30:38;99032.75;;;16.89
40199;BMP280;25906;43.536;26.068;2023-09-12T01:33:24;99025.38;;;16.84
40199;BMP280;25906;43.536;26.068;2023-09-12T01:36:10;99030.56;;;16.87
40199;BMP280;25906;43.536;26.068;2023-09-12T01:38:56;99032.50;;;16.87
40199;BMP280;25906;43.536;26.068;2023-09-12T01:41:43;99026.00;;;16.79
40199;BMP280;25906;43.536;26.068;2023-09-12T01:44:30;99024.63;;;16.83
40199;BMP280;25906;43.536;26.068;2023-09-12T01:47:17;99027.94;;;16.78
40199;BMP280;25906;43.536;26.068;2023-09-12T01:50:05;99027.72;;;16.67
40199;BMP280;25906;43.536;26.068;2023-09-12T01:52:53;99025.22;;;16.63
40199;BMP280;25906;43.536;26.068;2023-09-12T01:55:38;99023.75;;;16.62
40199;BMP280;25906;43.536;26.068;2023-09-12T01:58:25;99021.97;;;16.59
40199;BMP280;25906;43.536;26.068;2023-09-12T02:01:11;99023.31;;;16.64
40199;BMP280;25906;43.536;26.068;2023-09-12T02:03:57;99018.41;;;16.62
40199;BMP280;25906;43.536;26.068;2023-09-12T02:06:42;99026.72;;;16.64
40199;BMP280;25906;43.536;26.068;2023-09-12T02:09:28;99027.44;;;16.65
40199;BMP280;25906;43.536;26.068;2023-09-12T02:12:13;99022.41;;;16.58
40199;BMP280;25906;43.536;26.068;2023-09-12T02:14:59;99022.63;;;16.54
40199;BMP280;25906;43.536;26.068;2023-09-12T02:17:44;99020.50;;;16.58
40199;BMP280;25906;43.536;26.068;2023-09-12T02:20:31;99026.25;;;16.66
40199;BMP280;25906;43.536;26.068;2023-09-12T02:23:17;99020.06;;;16.60
40199;BMP280;25906;43.536;26.068;2023-09-12T02:26:03;99024.03;;;16.64
40199;BMP280;25906;43.536;26.068;2023-09-12T02:28:48;99024.47;;;16.63
40199;BMP280;25906;43.536;26.068;2023-09-12T02:31:33;99025.97;;;16.64
40199;BMP280;25906;43.536;26.068;2023-09-12T02:34:19;99024.66;;;16.59
40199;BMP280;25906;43.536;26.068;2023-09-12T02:37:04;99013.41;;;16.55
40199;BMP280;25906;43.536;26.068;2023-09-12T02:39:50;99015.16;;;16.58
40199;BMP280;25906;43.536;26.068;2023-09-12T02:42:35;99015.16;;;16.58
40199;BMP280;25906;43.536;26.068;2023-09-12T02:45:21;99019.69;;;16.43
40199;BMP280;25906;43.536;26.068;2023-09-12T02:48:06;99023.13;;;16.44
40199;BMP280;25906;43.536;26.068;2023-09-12T02:50:52;99023.59;;;16.33
40199;BMP280;25906;43.536;26.068;2023-09-12T02:53:37;99016.41;;;16.25
40199;BMP280;25906;43.536;26.068;2023-09-12T02:56:23;99024.00;;;16.17
40199;BMP280;25906;43.536;26.068;2023-09-12T02:59:08;99023.22;;;16.26
40199;BMP280;25906;43.536;26.068;2023-09-12T03:01:54;99019.34;;;16.27
40199;BMP280;25906;43.536;26.068;2023-09-12T03:04:39;99018.59;;;16.26
40199;BMP280;25906;43.536;26.068;2023-09-12T03:07:24;99021.56;;;16.28
40199;BMP280;25906;43.536;26.068;2023-09-12T03:10:10;99028.41;;;16.29
40199;BMP280;25906;43.536;26.068;2023-09-12T03:12:55;99029.25;;;16.35
40199;BMP280;25906;43.536;26.068;2023-09-12T03:15:41;99030.72;;;16.36
40199;BMP280;25906;43.536;26.068;2023-09-12T03:18:26;99027.31;;;16.36
40199;BMP280;25906;43.536;26.068;2023-09-12T03:21:12;99021.13;;;16.30
40199;BMP280;25906;43.536;26.068;2023-09-12T03:23:57;99023.06;;;16.29
40199;BMP280;25906;43.536;26.068;2023-09-12T03:26:42;99027.53;;;16.23
40199;BMP280;25906;43.536;26.068;2023-09-12T03:29:28;99023.38;;;16.22
40199;BMP280;25906;43.536;26.068;2023-09-12T03:32:13;99031.41;;;16.22
40199;BMP280;25906;43.536;26.068;2023-09-12T03:34:59;99026.41;;;16.15
40199;BMP280;25906;43.536;26.068;2023-09-12T03:37:44;99026.41;;;16.06
40199;BMP280;25906;43.536;26.068;2023-09-12T03:40:30;99032.81;;;15.99
40199;BMP280;25906;43.536;26.068;2023-09-12T03:43:15;99028.69;;;15.98
40199;BMP280;25906;43.536;26.068;2023-09-12T03:46:01;99034.78;;;15.90
40199;BMP280;25906;43.536;26.068;2023-09-12T03:48:46;99029.16;;;15.88
40199;BMP280;25906;43.536;26.068;2023-09-12T03:51:33;99028.28;;;15.82
40199;BMP280;25906;43.536;26.068;2023-09-12T03:54:19;99035.13;;;15.83
40199;BMP280;25906;43.536;26.068;2023-09-12T03:57:05;99026.91;;;15.95
40199;BMP280;25906;43.536;26.068;2023-09-12T03:59:50;99023.69;;;15.82
40199;BMP280;25906;43.536;26.068;2023-09-12T04:02:36;99032.97;;;15.96
40199;BMP280;25906;43.536;26.068;2023-09-12T04:05:21;99041.44;;;15.94
40199;BMP280;25906;43.536;26.068;2023-09-12T04:08:07;99033.72;;;15.96
40199;BMP280;25906;43.536;26.068;2023-09-12T04:10:53;99035.84;;;15.92
40199;BMP280;25906;43.536;26.068;2023-09-12T04:13:38;99040.25;;;15.95
40199;BMP280;25906;43.536;26.068;2023-09-12T04:16:24;99043.56;;;15.81
40199;BMP280;25906;43.536;26.068;2023-09-12T04:19:09;99046.34;;;15.87
40199;BMP280;25906;43.536;26.068;2023-09-12T04:21:55;99049.03;;;15.87
40199;BMP280;25906;43.536;26.068;2023-09-12T04:24:40;99045.03;;;15.91
40199;BMP280;25906;43.536;26.068;2023-09-12T04:27:26;99051.84;;;15.92
40199;BMP280;25906;43.536;26.068;2023-09-12T04:30:12;99052.59;;;15.93
40199;BMP280;25906;43.536;26.068;2023-09-12T04:32:57;99054.34;;;15.96
40199;BMP280;25906;43.536;26.068;2023-09-12T04:35:43;99050.91;;;16.04
40199;BMP280;25906;43.536;26.068;2023-09-12T04:38:28;99054.03;;;16.03
40199;BMP280;25906;43.536;26.068;2023-09-12T04:41:14;99055.63;;;16.09
40199;BMP280;25906;43.536;26.068;2023-09-12T04:44:02;99059.63;;;16.14
40199;BMP280;25906;43.536;26.068;2023-09-12T04:46:47;99056.78;;;16.18
40199;BMP280;25906;43.536;26.068;2023-09-12T04:49:33;99059.06;;;16.34
40199;BMP280;25906;43.536;26.068;2023-09-12T04:52:19;99065.44;;;16.36
40199;BMP280;25906;43.536;26.068;2023-09-12T04:55:05;99060.97;;;16.42
40199;BMP280;25906;43.536;26.068;2023-09-12T04:57:50;99060.63;;;16.49
40199;BMP280;25906;43.536;26.068;2023-09-12T05:00:35;99062.69;;;16.54
40199;BMP280;25906;43.536;26.068;2023-09-12T05:03:22;99058.22;;;16.60
40199;BMP280;25906;43.536;26.068;2023-09-12T05:06:07;99064.03;;;16.74
40199;BMP280;25906;43.536;26.068;2023-09-12T05:08:53;99060.47;;;16.77
40199;BMP280;25906;43.536;26.068;2023-09-12T05:11:38;99064.59;;;16.87
40199;BMP280;25906;43.536;26.068;2023-09-12T05:14:24;99071.06;;;16.95
40199;BMP280;25906;43.536;26.068;2023-09-12T05:17:09;99068.50;;;17.15
40199;BMP280;25906;43.536;26.068;2023-09-12T05:19:55;99066.41;;;17.19
40199;BMP280;25906;43.536;26.068;2023-09-12T05:22:40;99066.41;;;17.34
40199;BMP280;25906;43.536;26.068;2023-09-12T05:25:25;99063.84;;;17.39
40199;BMP280;25906;43.536;26.068;2023-09-12T05:28:14;99064.97;;;17.47
40199;BMP280;25906;43.536;26.068;2023-09-12T05:31:01;99070.75;;;17.60
40199;BMP280;25906;43.536;26.068;2023-09-12T05:33:46;99067.47;;;17.65
40199;BMP280;25906;43.536;26.068;2023-09-12T05:36:32;99069.09;;;17.77
40199;BMP280;25906;43.536;26.068;2023-09-12T05:39:17;99075.16;;;17.93
40199;BMP280;25906;43.536;26.068;2023-09-12T05:42:03;99068.97;;;18.01
40199;BMP280;25906;43.536;26.068;2023-09-12T05:44:49;99071.44;;;18.19
40199;BMP280;25906;43.536;26.068;2023-09-12T05:47:36;99073.78;;;18.32
40199;BMP280;25906;43.536;26.068;2023-09-12T05:50:21;99074.50;;;18.47
40199;BMP280;25906;43.536;26.068;2023-09-12T05:53:08;99070.47;;;18.57
40199;BMP280;25906;43.536;26.068;2023-09-12T05:55:54;99073.81;;;18.72
40199;BMP280;25906;43.536;26.068;2023-09-12T05:58:39;99074.47;;;18.87
40199;BMP280;25906;43.536;26.068;2023-09-12T06:01:27;99073.44;;;19.05
40199;BMP280;25906;43.536;26.068;2023-09-12T06:04:13;99071.09;;;19.13
40199;BMP280;25906;43.536;26.068;2023-09-12T06:07:01;99073.66;;;19.27
40199;BMP280;25906;43.536;26.068;2023-09-12T06:09:46;99066.47;;;19.39
40199;BMP280;25906;43.536;26.068;2023-09-12T06:12:32;99073.88;;;19.50
40199;BMP280;25906;43.536;26.068;2023-09-12T06:15:18;99078.16;;;19.67
40199;BMP280;25906;43.536;26.068;2023-09-12T06:18:04;99076.78;;;19.83
40199;BMP280;25906;43.536;26.068;2023-09-12T06:20:49;99078.63;;;19.97
40199;BMP280;25906;43.536;26.068;2023-09-12T06:23:35;99077.94;;;20.07
40199;BMP280;25906;43.536;26.068;2023-09-12T06:26:20;99080.25;;;20.26
40199;BMP280;25906;43.536;26.068;2023-09-12T06:29:06;99083.50;;;20.41
40199;BMP280;25906;43.536;26.068;2023-09-12T06:31:52;99086.94;;;20.47
40199;BMP280;25906;43.536;26.068;2023-09-12T06:34:37;99085.72;;;20.48
40199;BMP280;25906;43.536;26.068;2023-09-12T06:37:23;99077.78;;;20.70
40199;BMP280;25906;43.536;26.068;2023-09-12T06:40:08;99078.25;;;20.80
40199;BMP280;25906;43.536;26.068;2023-09-12T06:42:54;99088.59;;;20.92
40199;BMP280;25906;43.536;26.068;2023-09-12T06:45:43;99086.41;;;21.13
40199;BMP280;25906;43.536;26.068;2023-09-12T06:48:28;99092.28;;;21.28
40199;BMP280;25906;43.536;26.068;2023-09-12T06:51:14;99085.94;;;21.42
40199;BMP280;25906;43.536;26.068;2023-09-12T06:54:00;99089.84;;;21.63
40199;BMP280;25906;43.536;26.068;2023-09-12T06:56:45;99099.69;;;21.55
40199;BMP280;25906;43.536;26.068;2023-09-12T06:59:31;99096.44;;;21.79
40199;BMP280;25906;43.536;26.068;2023-09-12T07:02:16;99106.25;;;21.93
40199;BMP280;25906;43.536;26.068;2023-09-12T07:05:03;99099.78;;;22.18
40199;BMP280;25906;43.536;26.068;2023-09-12T07:07:49;99102.97;;;22.28
40199;BMP280;25906;43.536;26.068;2023-09-12T07:10:35;99102.44;;;22.40
40199;BMP280;25906;43.536;26.068;2023-09-12T07:13:21;99104.56;;;22.53
40199;BMP280;25906;43.536;26.068;2023-09-12T07:16:07;99112.13;;;22.66
40199;BMP280;25906;43.536;26.068;2023-09-12T07:18:52;99113.28;;;22.81
40199;BMP280;25906;43.536;26.068;2023-09-12T07:21:38;99119.28;;;23.04
40199;BMP280;25906;43.536;26.068;2023-09-12T07:24:27;99113.81;;;23.09
40199;BMP280;25906;43.536;26.068;2023-09-12T07:27:12;99116.34;;;23.37
40199;BMP280;25906;43.536;26.068;2023-09-12T07:29:58;99115.78;;;23.44
40199;BMP280;25906;43.536;26.068;2023-09-12T07:32:43;99119.69;;;23.73
40199;BMP280;25906;43.536;26.068;2023-09-12T07:35:29;99121.28;;;23.87
40199;BMP280;25906;43.536;26.068;2023-09-12T07:38:15;99113.44;;;24.08
40199;BMP280;25906;43.536;26.068;2023-09-12T07:41:01;99116.38;;;24.10
40199;BMP280;25906;43.536;26.068;2023-09-12T07:43:56;99114.44;;;24.48
40199;BMP280;25906;43.536;26.068;2023-09-12T07:46:42;99111.19;;;24.86
40199;BMP280;25906;43.536;26.068;2023-09-12T07:49:27;99113.38;;;24.88
40199;BMP280;25906;43.536;26.068;2023-09-12T07:52:13;99104.56;;;25.00
40199;BMP280;25906;43.536;26.068;2023-09-12T07:55:04;99115.66;;;25.15
40199;BMP280;25906;43.536;26.068;2023-09-12T07:57:50;99119.44;;;25.26
40199;BMP280;25906;43.536;26.068;2023-09-12T08:00:36;99106.47;;;25.50
40199;BMP280;25906;43.536;26.068;2023-09-12T08:03:22;99102.88;;;25.29
40199;BMP280;25906;43.536;26.068;2023-09-12T08:06:24;99102.50;;;25.77
40199;BMP280;25906;43.536;26.068;2023-09-12T08:09:10;99102.09;;;26.00
40199;BMP280;25906;43.536;26.068;2023-09-12T08:11:56;99111.09;;;26.28
40199;BMP280;25906;43.536;26.068;2023-09-12T08:14:41;99108.09;;;26.52
40199;BMP280;25906;43.536;26.068;2023-09-12T08:17:26;99102.00;;;26.60
40199;BMP280;25906;43.536;26.068;2023-09-12T08:20:12;99097.66;;;26.98
40199;BMP280;25906;43.536;26.068;2023-09-12T08:22:58;99103.16;;;27.05
40199;BMP280;25906;43.536;26.068;2023-09-12T08:25:44;99101.56;;;26.89
40199;BMP280;25906;43.536;26.068;2023-09-12T08:28:29;99096.94;;;27.18
40199;BMP280;25906;43.536;26.068;2023-09-12T08:31:14;99095.88;;;27.49
40199;BMP280;25906;43.536;26.068;2023-09-12T08:34:00;99103.19;;;27.62
40199;BMP280;25906;43.536;26.068;2023-09-12T08:36:45;99101.88;;;27.55
40199;BMP280;25906;43.536;26.068;2023-09-12T08:39:42;99097.13;;;27.76
40199;BMP280;25906;43.536;26.068;2023-09-12T08:42:31;99096.19;;;27.74
40199;BMP280;25906;43.536;26.068;2023-09-12T08:45:18;99094.69;;;27.65
40199;BMP280;25906;43.536;26.068;2023-09-12T08:48:05;99101.66;;;27.81
40199;BMP280;25906;43.536;26.068;2023-09-12T08:50:52;99090.50;;;27.64
40199;BMP280;25906;43.536;26.068;2023-09-12T08:53:38;99088.81;;;27.89
40199;BMP280;25906;43.536;26.068;2023-09-12T08:56:24;99086.88;;;27.69
40199;BMP280;25906;43.536;26.068;2023-09-12T08:59:10;99090.63;;;27.94
40199;BMP280;25906;43.536;26.068;2023-09-12T09:01:56;99090.72;;;28.25
40199;BMP280;25906;43.536;26.068;2023-09-12T09:04:45;99083.91;;;28.61
40199;BMP280;25906;43.536;26.068;2023-09-12T09:07:33;99084.06;;;28.48
40199;BMP280;25906;43.536;26.068;2023-09-12T09:10:22;99093.63;;;28.19
40199;BMP280;25906;43.536;26.068;2023-09-12T09:13:08;99087.41;;;28.03
40199;BMP280;25906;43.536;26.068;2023-09-12T09:16:16;99092.81;;;27.88
40199;BMP280;25906;43.536;26.068;2023-09-12T09:19:04;99082.81;;;27.83
40199;BMP280;25906;43.536;26.068;2023-09-12T09:22:05;99080.78;;;28.35
40199;BMP280;25906;43.536;26.068;2023-09-12T09:24:51;99079.34;;;28.49
40199;BMP280;25906;43.536;26.068;2023-09-12T09:27:54;99082.66;;;28.70
40199;BMP280;25906;43.536;26.068;2023-09-12T09:30:47;99074.63;;;28.49
40199;BMP280;25906;43.536;26.068;2023-09-12T09:33:35;99082.47;;;28.83
40199;BMP280;25906;43.536;26.068;2023-09-12T09:36:20;99077.72;;;29.06
40199;BMP280;25906;43.536;26.068;2023-09-12T09:39:06;99073.38;;;29.18
40199;BMP280;25906;43.536;26.068;2023-09-12T09:41:54;99077.38;;;28.57
40199;BMP280;25906;43.536;26.068;2023-09-12T09:44:39;99078.59;;;29.24
40199;BMP280;25906;43.536;26.068;2023-09-12T09:47:25;99071.31;;;29.34
40199;BMP280;25906;43.536;26.068;2023-09-12T09:50:14;99075.28;;;29.40
40199;BMP280;25906;43.536;26.068;2023-09-12T09:53:00;99068.16;;;29.52
40199;BMP280;25906;43.536;26.068;2023-09-12T09:55:46;99072.16;;;29.51
40199;BMP280;25906;43.536;26.068;2023-09-12T09:58:32;99074.03;;;29.34
40199;BMP280;25906;43.536;26.068;2023-09-12T10:01:29;99070.09;;;28.67
40199;BMP280;25906;43.536;26.068;2023-09-12T10:04:16;99057.50;;;29.32
40199;BMP280;25906;43.536;26.068;2023-09-12T10:07:01;99065.56;;;28.92
40199;BMP280;25906;43.536;26.068;2023-09-12T10:09:48;99064.72;;;29.44
40199;BMP280;25906;43.536;26.068;2023-09-12T10:15:04;99059.97;;;29.52
40199;BMP280;25906;43.536;26.068;2023-09-12T10:17:36;99058.22;;;29.25
40199;BMP280;25906;43.536;26.068;2023-09-12T10:20:29;99064.91;;;29.46
40199;BMP280;25906;43.536;26.068;2023-09-12T10:23:30;99065.84;;;29.41
40199;BMP280;25906;43.536;26.068;2023-09-12T10:26:22;99061.91;;;29.05
40199;BMP280;25906;43.536;26.068;2023-09-12T10:29:08;99056.06;;;29.23
40199;BMP280;25906;43.536;26.068;2023-09-12T10:31:55;99054.25;;;29.26
40199;BMP280;25906;43.536;26.068;2023-09-12T10:34:44;99055.34;;;29.70
40199;BMP280;25906;43.536;26.068;2023-09-12T10:37:31;99049.53;;;30.06
40199;BMP280;25906;43.536;26.068;2023-09-12T10:40:19;99051.38;;;29.64
40199;BMP280;25906;43.536;26.068;2023-09-12T10:43:05;99044.09;;;29.74
40199;BMP280;25906;43.536;26.068;2023-09-12T10:45:51;99052.97;;;29.74
40199;BMP280;25906;43.536;26.068;2023-09-12T10:48:38;99049.13;;;29.77
40199;BMP280;25906;43.536;26.068;2023-09-12T10:51:25;99041.56;;;29.61
40199;BMP280;25906;43.536;26.068;2023-09-12T10:54:15;99038.94;;;29.78
40199;BMP280;25906;43.536;26.068;2023-09-12T10:57:04;99042.72;;;29.42
40199;BMP280;25906;43.536;26.068;2023-09-12T11:02:45;99039.88;;;29.73
40199;BMP280;25906;43.536;26.068;2023-09-12T11:08:17;99030.25;;;29.72
40199;BMP280;25906;43.536;26.068;2023-09-12T11:11:19;99016.88;;;30.15
40199;BMP280;25906;43.536;26.068;2023-09-12T11:14:06;99011.25;;;30.13
40199;BMP280;25906;43.536;26.068;2023-09-12T11:19:53;99013.56;;;30.17
40199;BMP280;25906;43.536;26.068;2023-09-12T11:22:40;99010.22;;;30.26
40199;BMP280;25906;43.536;26.068;2023-09-12T11:25:26;99007.94;;;30.15
40199;BMP280;25906;43.536;26.068;2023-09-12T11:28:12;99009.25;;;30.56
40199;BMP280;25906;43.536;26.068;2023-09-12T11:30:58;99000.81;;;30.44
40199;BMP280;25906;43.536;26.068;2023-09-12T11:33:43;99001.72;;;29.97
40199;BMP280;25906;43.536;26.068;2023-09-12T11:36:29;98995.63;;;29.82
40199;BMP280;25906;43.536;26.068;2023-09-12T11:39:24;99009.34;;;30.23
40199;BMP280;25906;43.536;26.068;2023-09-12T11:42:11;98995.84;;;30.01
40199;BMP280;25906;43.536;26.068;2023-09-12T11:44:58;98995.69;;;30.23
40199;BMP280;25906;43.536;26.068;2023-09-12T11:47:45;98994.16;;;30.13
40199;BMP280;25906;43.536;26.068;2023-09-12T11:50:32;98988.28;;;30.41
40199;BMP280;25906;43.536;26.068;2023-09-12T11:53:20;98995.06;;;30.32
40199;BMP280;25906;43.536;26.068;2023-09-12T11:56:07;98989.50;;;30.23
40199;BMP280;25906;43.536;26.068;2023-09-12T11:58:53;98985.69;;;30.43
40199;BMP280;25906;43.536;26.068;2023-09-12T12:01:40;98982.81;;;30.41
40199;BMP280;25906;43.536;26.068;2023-09-12T12:04:26;98980.25;;;30.43
40199;BMP280;25906;43.536;26.068;2023-09-12T12:07:11;98971.19;;;30.16
40199;BMP280;25906;43.536;26.068;2023-09-12T12:09:58;98975.38;;;30.59
40199;BMP280;25906;43.536;26.068;2023-09-12T12:12:44;98960.56;;;30.45
40199;BMP280;25906;43.536;26.068;2023-09-12T12:15:33;98971.50;;;30.20
40199;BMP280;25906;43.536;26.068;2023-09-12T12:18:18;98967.09;;;30.00
40199;BMP280;25906;43.536;26.068;2023-09-12T12:21:04;98960.91;;;30.24
40199;BMP280;25906;43.536;26.068;2023-09-12T12:23:58;98964.38;;;30.24
40199;BMP280;25906;43.536;26.068;2023-09-12T12:26:43;98964.78;;;30.38
40199;BMP280;25906;43.536;26.068;2023-09-12T12:29:29;98958.69;;;30.05
40199;BMP280;25906;43.536;26.068;2023-09-12T12:32:16;98957.38;;;29.89
40199;BMP280;25906;43.536;26.068;2023-09-12T12:35:01;98952.75;;;29.99
40199;BMP280;25906;43.536;26.068;2023-09-12T12:37:48;98962.03;;;30.21
40199;BMP280;25906;43.536;26.068;2023-09-12T12:40:38;98971.69;;;29.97
40199;BMP280;25906;43.536;26.068;2023-09-12T12:43:25;98960.13;;;30.06
40199;BMP280;25906;43.536;26.068;2023-09-12T12:46:12;98954.59;;;30.38
40199;BMP280;25906;43.536;26.068;2023-09-12T12:48:58;98958.25;;;30.75
40199;BMP280;25906;43.536;26.068;2023-09-12T12:51:43;98955.75;;;30.53
40199;BMP280;25906;43.536;26.068;2023-09-12T12:54:31;98956.19;;;30.24
40199;BMP280;25906;43.536;26.068;2023-09-12T12:57:19;98943.72;;;30.31
40199;BMP280;25906;43.536;26.068;2023-09-12T13:00:12;98954.06;;;30.15
40199;BMP280;25906;43.536;26.068;2023-09-12T13:02:58;98950.09;;;30.09
40199;BMP280;25906;43.536;26.068;2023-09-12T13:05:44;98951.97;;;30.65
40199;BMP280;25906;43.536;26.068;2023-09-12T13:08:30;98952.44;;;30.54
40199;BMP280;25906;43.536;26.068;2023-09-12T13:11:15;98949.69;;;30.37
40199;BMP280;25906;43.536;26.068;2023-09-12T13:14:02;98953.97;;;30.06
40199;BMP280;25906;43.536;26.068;2023-09-12T13:16:54;98949.00;;;30.12
40199;BMP280;25906;43.536;26.068;2023-09-12T13:19:39;98937.22;;;30.26
40199;BMP280;25906;43.536;26.068;2023-09-12T13:22:24;98941.19;;;30.33
40199;BMP280;25906;43.536;26.068;2023-09-12T13:25:10;98949.56;;;30.10
40199;BMP280;25906;43.536;26.068;2023-09-12T13:27:56;98947.06;;;30.05
40199;BMP280;25906;43.536;26.068;2023-09-12T13:30:41;98940.16;;;30.04
40199;BMP280;25906;43.536;26.068;2023-09-12T13:33:27;98940.75;;;29.95
40199;BMP280;25906;43.536;26.068;2023-09-12T13:36:12;98952.47;;;29.88
40199;BMP280;25906;43.536;26.068;2023-09-12T13:38:59;98937.97;;;29.78
40199;BMP280;25906;43.536;26.068;2023-09-12T13:41:44;98939.97;;;29.77
40199;BMP280;25906;43.536;26.068;2023-09-12T13:44:32;98929.00;;;29.85
40199;BMP280;25906;43.536;26.068;2023-09-12T13:47:18;98941.72;;;29.90
40199;BMP280;25906;43.536;26.068;2023-09-12T13:50:07;98935.09;;;30.17
40199;BMP280;25906;43.536;26.068;2023-09-12T13:52:54;98927.03;;;30.27
40199;BMP280;25906;43.536;26.068;2023-09-12T13:55:40;98936.50;;;30.26
40199;BMP280;25906;43.536;26.068;2023-09-12T13:58:26;98934.28;;;30.07
40199;BMP280;25906;43.536;26.068;2023-09-12T14:01:11;98930.34;;;30.01
40199;BMP280;25906;43.536;26.068;2023-09-12T14:03:56;98933.19;;;30.10
40199;BMP280;25906;43.536;26.068;2023-09-12T14:06:42;98933.88;;;29.94
40199;BMP280;25906;43.536;26.068;2023-09-12T14:09:28;98935.41;;;29.80
40199;BMP280;25906;43.536;26.068;2023-09-12T14:12:13;98925.16;;;29.63
40199;BMP280;25906;43.536;26.068;2023-09-12T14:14:59;98939.34;;;29.62
40199;BMP280;25906;43.536;26.068;2023-09-12T14:17:44;98938.16;;;29.47
40199;BMP280;25906;43.536;26.068;2023-09-12T14:20:30;98933.75;;;29.52
40199;BMP280;25906;43.536;26.068;2023-09-12T14:23:15;98933.69;;;29.35
40199;BMP280;25906;43.536;26.068;2023-09-12T14:26:01;98934.72;;;29.47
40199;BMP280;25906;43.536;26.068;2023-09-12T14:28:47;98938.75;;;29.38
40199;BMP280;25906;43.536;26.068;2023-09-12T14:31:32;98938.06;;;29.30
40199;BMP280;25906;43.536;26.068;2023-09-12T14:34:17;98938.75;;;29.38
40199;BMP280;25906;43.536;26.068;2023-09-12T14:37:03;98943.31;;;29.36
40199;BMP280;25906;43.536;26.068;2023-09-12T14:39:48;98935.38;;;29.55
40199;BMP280;25906;43.536;26.068;2023-09-12T14:42:34;98930.78;;;29.33
40199;BMP280;25906;43.536;26.068;2023-09-12T14:45:19;98939.28;;;29.37
40199;BMP280;25906;43.536;26.068;2023-09-12T14:48:05;98934.63;;;29.22
40199;BMP280;25906;43.536;26.068;2023-09-12T14:50:52;98938.84;;;29.16
40199;BMP280;25906;43.536;26.068;2023-09-12T14:53:37;98941.03;;;29.17
40199;BMP280;25906;43.536;26.068;2023-09-12T14:56:30;98942.13;;;29.14
40199;BMP280;25906;43.536;26.068;2023-09-12T14:59:15;98939.03;;;29.10
40199;BMP280;25906;43.536;26.068;2023-09-12T15:02:01;98943.03;;;29.17
40199;BMP280;25906;43.536;26.068;2023-09-12T15:04:47;98945.09;;;29.01
40199;BMP280;25906;43.536;26.068;2023-09-12T15:07:32;98939.47;;;28.92
40199;BMP280;25906;43.536;26.068;2023-09-12T15:10:19;98940.00;;;28.90
40199;BMP280;25906;43.536;26.068;2023-09-12T15:13:05;98943.16;;;28.79
40199;BMP280;25906;43.536;26.068;2023-09-12T15:15:50;98947.50;;;28.74
40199;BMP280;25906;43.536;26.068;2023-09-12T15:18:36;98934.75;;;28.85
40199;BMP280;25906;43.536;26.068;2023-09-12T15:21:23;98943.28;;;28.81
40199;BMP280;25906;43.536;26.068;2023-09-12T15:24:08;98942.44;;;28.71
40199;BMP280;25906;43.536;26.068;2023-09-12T15:26:54;98941.34;;;28.66
40199;BMP280;25906;43.536;26.068;2023-09-12T15:29:39;98939.38;;;28.59
40199;BMP280;25906;43.536;26.068;2023-09-12T15:32:24;98942.63;;;28.58
40199;BMP280;25906;43.536;26.068;2023-09-12T15:35:10;98946.63;;;28.57
40199;BMP280;25906;43.536;26.068;2023-09-12T15:37:56;98942.63;;;28.43
40199;BMP280;25906;43.536;26.068;2023-09-12T15:40:41;98944.66;;;28.35
40199;BMP280;25906;43.536;26.068;2023-09-12T15:43:27;98944.47;;;28.18
40199;BMP280;25906;43.536;26.068;2023-09-12T15:46:12;98948.28;;;28.15
40199;BMP280;25906;43.536;26.068;2023-09-12T15:48:58;98948.41;;;28.09
40199;BMP280;25906;43.536;26.068;2023-09-12T15:51:43;98941.72;;;27.95
40199;BMP280;25906;43.536;26.068;2023-09-12T15:54:29;98946.81;;;27.98
40199;BMP280;25906;43.536;26.068;2023-09-12T15:57:15;98948.03;;;27.82
40199;BMP280;25906;43.536;26.068;2023-09-12T16:00:01;98942.19;;;27.71